Time;durP1;ratioP1;P1;durP2;ratioP2;P2;SDS_P1;SDS_P2;PMS_P1;PMS_P2;Temp;Humidity;BMP_temperature;BMP_pressure;BME280_temperature;BME280_humidity;BME280_pressure;Samples;Min_cycle;Max_cycle;Signal;HPM_P1;HPM_P2
2023/07/06 00:00:40;;;;;;;3.83;2.73;;;14.90;99.90;;;;;;5082984;28;20510;-68
2023/07/06 00:03:06;;;;;;;3.17;2.87;;;14.90;99.90;;;;;;5084941;28;20184;-69
2023/07/06 00:05:32;;;;;;;3.20;2.20;;;14.90;99.90;;;;;;5082656;28;20676;-69
2023/07/06 00:07:58;;;;;;;2.60;2.40;;;14.90;99.90;;;;;;5085246;28;20180;-69
2023/07/06 00:10:24;;;;;;;2.60;2.20;;;14.80;99.90;;;;;;5079832;28;20607;-69
2023/07/06 00:12:50;;;;;;;2.87;2.53;;;14.80;99.90;;;;;;5083094;28;20561;-69
2023/07/06 00:15:16;;;;;;;2.80;2.60;;;14.80;99.90;;;;;;5087024;28;20505;-69
2023/07/06 00:17:42;;;;;;;3.10;2.60;;;14.80;99.90;;;;;;5081542;28;20211;-69
2023/07/06 00:20:10;;;;;;;2.83;2.30;;;14.80;99.90;;;;;;5085963;28;20200;-69
2023/07/06 00:22:36;;;;;;;2.53;2.33;;;14.80;99.90;;;;;;5078436;28;20252;-69
2023/07/06 00:25:02;;;;;;;3.80;2.60;;;14.80;99.90;;;;;;5084079;28;20493;-70
2023/07/06 00:27:28;;;;;;;3.17;2.80;;;14.80;99.90;;;;;;5090067;28;20426;-69
2023/07/06 00:30:15;;;;;;;3.17;2.27;;;14.80;99.90;;;;;;5083066;28;20424;-69
2023/07/06 00:32:41;;;;;;;2.90;2.63;;;14.70;99.90;;;;;;5085488;28;20919;-68
2023/07/06 00:35:10;;;;;;;2.83;2.63;;;14.70;99.90;;;;;;5078870;28;20530;-69
2023/07/06 00:37:38;;;;;;;2.90;2.60;;;14.70;99.90;;;;;;5083806;28;20537;-69
2023/07/06 00:40:08;;;;;;;3.00;2.70;;;14.70;99.90;;;;;;5089458;28;20913;-69
2023/07/06 00:42:34;;;;;;;2.60;2.40;;;14.60;99.90;;;;;;5088905;28;20403;-69
2023/07/06 00:45:01;;;;;;;2.90;2.37;;;14.60;99.90;;;;;;5088812;28;20433;-69
2023/07/06 00:47:35;;;;;;;2.93;2.70;;;14.60;99.90;;;;;;5089357;28;20518;-69
2023/07/06 00:50:11;;;;;;;4.93;2.70;;;14.60;99.90;;;;;;5089273;28;20475;-69
2023/07/06 00:52:42;;;;;;;3.50;2.83;;;14.60;99.90;;;;;;5088644;28;20970;-69
2023/07/06 00:55:10;;;;;;;3.93;2.60;;;14.50;99.90;;;;;;5089116;28;20414;-69
2023/07/06 00:57:38;;;;;;;3.53;3.10;;;14.60;99.90;;;;;;5088194;28;21077;-69
2023/07/06 01:00:06;;;;;;;3.47;2.50;;;14.50;99.90;;;;;;5089260;28;20460;-69
2023/07/06 01:02:38;;;;;;;3.10;2.67;;;14.50;99.90;;;;;;5088553;28;20406;-69
2023/07/06 01:05:05;;;;;;;4.87;3.00;;;14.50;99.90;;;;;;5088900;28;20570;-69
2023/07/06 01:07:32;;;;;;;4.90;3.10;;;14.50;99.90;;;;;;5089204;28;20430;-68
2023/07/06 01:09:59;;;;;;;5.53;3.60;;;14.50;99.90;;;;;;5089024;28;20398;-69
2023/07/06 01:12:25;;;;;;;3.30;2.97;;;14.50;99.90;;;;;;5087800;28;20421;-69
2023/07/06 01:14:52;;;;;;;3.60;2.63;;;14.40;99.90;;;;;;5088606;28;20450;-69
2023/07/06 01:17:24;;;;;;;4.60;3.50;;;14.40;99.90;;;;;;5088890;28;20507;-69
2023/07/06 01:19:59;;;;;;;5.20;2.93;;;14.40;99.90;;;;;;5088778;28;20467;-69
2023/07/06 01:23:09;;;;;;;3.63;3.23;;;14.40;99.90;;;;;;5088210;28;20403;-70
2023/07/06 01:25:56;;;;;;;4.83;3.37;;;14.30;99.90;;;;;;5083899;28;20442;-69
2023/07/06 01:28:22;;;;;;;3.67;2.83;;;14.30;99.90;;;;;;5068624;28;20465;-69
2023/07/06 01:31:36;;;;;;;3.53;3.23;;;14.30;99.90;;;;;;5068565;28;20435;-69
2023/07/06 01:34:07;;;;;;;3.73;3.20;;;14.20;99.90;;;;;;5062408;28;20229;-69
2023/07/06 01:37:02;;;;;;;3.97;3.03;;;14.20;99.90;;;;;;5068496;28;20482;-70
2023/07/06 01:39:28;;;;;;;4.40;2.90;;;14.20;99.90;;;;;;5069179;28;20404;-69
2023/07/06 01:42:24;;;;;;;4.83;3.47;;;14.20;99.90;;;;;;5068328;28;20427;-69
2023/07/06 01:44:50;;;;;;;3.63;3.10;;;14.20;99.90;;;;;;5067026;28;20515;-69
2023/07/06 01:47:21;;;;;;;3.50;3.20;;;14.20;99.90;;;;;;5068491;28;20506;-69
2023/07/06 01:49:48;;;;;;;4.87;2.93;;;14.20;99.90;;;;;;5066947;28;20662;-68
2023/07/06 01:52:26;;;;;;;5.30;3.17;;;14.20;99.90;;;;;;5067737;28;20415;-68
2023/07/06 01:55:09;;;;;;;4.30;3.33;;;14.20;99.90;;;;;;5068244;28;20403;-68
2023/07/06 01:57:53;;;;;;;4.77;3.30;;;14.20;99.90;;;;;;5068803;28;20450;-68
2023/07/06 02:00:21;;;;;;;3.33;3.00;;;14.10;99.90;;;;;;5087260;28;20436;-68
2023/07/06 02:02:48;;;;;;;3.80;3.20;;;14.10;99.90;;;;;;5087908;28;20410;-69
2023/07/06 02:05:15;;;;;;;3.53;3.20;;;14.10;99.90;;;;;;5088161;28;20455;-69
2023/07/06 02:07:42;;;;;;;4.00;3.40;;;14.10;99.90;;;;;;5088486;28;20505;-69
2023/07/06 02:10:08;;;;;;;4.87;3.10;;;14.10;99.90;;;;;;5088385;28;20431;-69
2023/07/06 02:12:33;;;;;;;3.90;3.40;;;14.10;99.90;;;;;;5087850;28;20471;-69
2023/07/06 02:14:59;;;;;;;4.03;2.50;;;14.10;99.90;;;;;;5088124;28;20414;-69
2023/07/06 02:17:25;;;;;;;5.47;2.97;;;14.10;99.90;;;;;;5088450;28;20206;-69
2023/07/06 02:19:51;;;;;;;4.20;3.20;;;14.00;99.90;;;;;;5088334;28;20173;-69
2023/07/06 02:22:17;;;;;;;4.93;3.53;;;13.90;99.90;;;;;;5088468;28;20906;-68
2023/07/06 02:24:44;;;;;;;3.70;3.30;;;13.90;99.90;;;;;;5092029;28;20177;-68
2023/07/06 02:27:10;;;;;;;3.80;3.10;;;13.80;99.90;;;;;;5091827;28;20414;-68
2023/07/06 02:29:36;;;;;;;4.33;3.50;;;13.80;99.90;;;;;;5092121;28;20942;-69
2023/07/06 02:32:02;;;;;;;4.00;3.60;;;13.80;99.90;;;;;;5091427;28;21107;-70
2023/07/06 02:34:28;;;;;;;4.63;3.50;;;13.80;99.90;;;;;;5091631;28;20410;-69
2023/07/06 02:36:55;;;;;;;4.80;3.80;;;13.80;99.90;;;;;;5091759;28;20450;-69
2023/07/06 02:39:24;;;;;;;5.03;3.80;;;13.90;99.90;;;;;;5091981;28;20172;-69
2023/07/06 02:41:54;;;;;;;4.10;2.87;;;13.90;99.90;;;;;;5091746;28;20817;-69
2023/07/06 02:44:20;;;;;;;4.40;3.10;;;13.90;99.90;;;;;;5090858;28;20407;-69
2023/07/06 02:46:49;;;;;;;5.37;3.77;;;13.90;99.90;;;;;;5091818;28;20907;-69
2023/07/06 02:49:16;;;;;;;4.53;3.67;;;13.80;99.90;;;;;;5091592;28;20885;-70
2023/07/06 02:51:42;;;;;;;3.60;3.00;;;13.80;99.90;;;;;;5090213;28;20426;-70
2023/07/06 02:54:10;;;;;;;6.70;3.37;;;13.80;99.90;;;;;;5090697;28;20406;-70
2023/07/06 02:56:35;;;;;;;3.43;3.13;;;13.90;99.90;;;;;;5091435;28;20457;-70
2023/07/06 02:59:01;;;;;;;4.63;3.07;;;13.80;99.90;;;;;;5090500;28;21191;-70
2023/07/06 03:01:27;;;;;;;5.70;4.37;;;13.80;99.90;;;;;;5091257;28;20184;-69
2023/07/06 03:03:52;;;;;;;4.27;3.87;;;13.80;99.90;;;;;;5090449;28;20711;-70
2023/07/06 03:06:18;;;;;;;5.40;3.60;;;13.80;99.90;;;;;;5091406;28;20515;-69
2023/07/06 03:08:46;;;;;;;6.73;3.40;;;13.80;99.90;;;;;;5091347;28;20200;-70
2023/07/06 03:11:11;;;;;;;4.60;3.63;;;13.80;99.90;;;;;;5091180;28;20441;-70
2023/07/06 03:13:37;;;;;;;4.13;3.73;;;13.90;99.90;;;;;;5089888;28;20494;-70
2023/07/06 03:16:05;;;;;;;4.07;3.67;;;13.80;99.90;;;;;;5091172;28;20185;-69
2023/07/06 03:18:30;;;;;;;6.60;3.47;;;13.80;99.90;;;;;;5091113;28;20419;-69
2023/07/06 03:20:56;;;;;;;5.27;3.63;;;13.80;99.90;;;;;;5091106;28;21313;-69
2023/07/06 03:23:23;;;;;;;4.50;3.53;;;13.80;99.90;;;;;;5090026;28;20414;-69
2023/07/06 03:25:52;;;;;;;4.73;3.67;;;13.80;99.90;;;;;;5090922;28;20240;-69
2023/07/06 03:28:19;;;;;;;5.27;3.90;;;13.80;99.90;;;;;;5070653;28;20420;-70
2023/07/06 03:30:45;;;;;;;4.40;3.63;;;13.80;99.90;;;;;;5070673;28;20423;-69
2023/07/06 03:33:11;;;;;;;4.23;3.60;;;13.80;99.90;;;;;;5069556;28;20404;-69
2023/07/06 03:35:41;;;;;;;5.53;3.80;;;13.80;99.90;;;;;;5070026;28;20200;-69
2023/07/06 03:38:07;;;;;;;5.90;3.93;;;13.80;99.90;;;;;;5070569;28;20458;-70
2023/07/06 03:40:33;;;;;;;4.53;3.70;;;13.80;99.90;;;;;;5070594;28;20476;-69
2023/07/06 03:42:59;;;;;;;4.17;3.80;;;13.80;99.90;;;;;;5069519;28;20757;-69
2023/07/06 03:45:25;;;;;;;6.47;4.50;;;13.80;99.90;;;;;;5069300;28;20189;-69
2023/07/06 03:47:50;;;;;;;3.60;3.30;;;13.80;99.90;;;;;;5070373;28;20193;-69
2023/07/06 03:50:20;;;;;;;6.47;4.00;;;13.80;99.90;;;;;;5068738;28;20514;-69
2023/07/06 03:52:46;;;;;;;4.83;3.57;;;13.80;99.90;;;;;;5069505;28;20258;-69
2023/07/06 03:55:17;;;;;;;4.37;3.97;;;13.80;99.90;;;;;;5070044;28;20813;-69
2023/07/06 03:57:45;;;;;;;5.10;3.77;;;13.80;99.90;;;;;;5071906;28;20855;-70
2023/07/06 04:00:22;;;;;;;5.63;3.70;;;13.80;99.90;;;;;;5090257;28;20426;-70
2023/07/06 04:02:56;;;;;;;3.97;3.67;;;13.80;99.90;;;;;;5089596;28;20413;-70
2023/07/06 04:05:25;;;;;;;4.40;3.90;;;13.80;99.90;;;;;;5088802;28;20450;-69
2023/07/06 04:07:52;;;;;;;7.47;4.00;;;13.80;99.90;;;;;;5090215;28;21382;-69
2023/07/06 04:10:22;;;;;;;4.40;3.60;;;13.80;99.90;;;;;;5090122;28;20437;-69
2023/07/06 04:12:48;;;;;;;4.30;3.90;;;13.80;99.90;;;;;;5089694;28;20429;-70
2023/07/06 04:15:17;;;;;;;4.80;3.47;;;13.80;99.90;;;;;;5090062;28;20956;-69
2023/07/06 04:17:50;;;;;;;5.40;3.67;;;13.80;99.90;;;;;;5090322;28;21233;-69
2023/07/06 04:20:21;;;;;;;6.13;3.60;;;13.80;99.90;;;;;;5090138;28;20426;-69
2023/07/06 04:22:49;;;;;;;5.13;3.17;;;13.80;99.90;;;;;;5089453;28;20451;-70
2023/07/06 04:25:19;;;;;;;4.60;3.23;;;13.80;99.90;;;;;;5090016;28;20527;-69
2023/07/06 04:27:46;;;;;;;5.10;3.97;;;13.80;99.90;;;;;;5090059;28;20433;-69
2023/07/06 04:30:12;;;;;;;4.43;3.40;;;13.90;99.90;;;;;;5090079;28;20436;-69
2023/07/06 04:32:38;;;;;;;4.37;3.40;;;13.80;99.90;;;;;;5089445;28;20429;-70
2023/07/06 04:35:06;;;;;;;4.07;3.20;;;13.90;99.90;;;;;;5089579;28;20422;-69
2023/07/06 04:37:32;;;;;;;3.50;2.87;;;13.90;99.90;;;;;;5088399;28;20208;-69
2023/07/06 04:39:59;;;;;;;4.97;4.10;;;13.90;99.90;;;;;;5086122;28;20411;-69
2023/07/06 04:42:27;;;;;;;5.70;3.83;;;14.00;99.90;;;;;;5083771;28;20522;-69
2023/07/06 04:44:54;;;;;;;4.70;3.77;;;14.00;99.90;;;;;;5087169;28;20414;-70
2023/07/06 04:47:23;;;;;;;4.50;3.27;;;14.00;99.90;;;;;;5088417;28;20419;-69
2023/07/06 04:49:50;;;;;;;4.50;3.57;;;14.10;99.90;;;;;;5085245;28;20422;-69
2023/07/06 04:52:16;;;;;;;5.93;3.50;;;14.10;99.90;;;;;;5085059;28;20946;-70
2023/07/06 04:54:42;;;;;;;7.50;3.80;;;14.20;99.90;;;;;;5087237;28;20475;-69
2023/07/06 04:57:09;;;;;;;7.43;3.33;;;14.30;99.90;;;;;;5085840;28;20470;-69
2023/07/06 04:59:35;;;;;;;6.37;3.60;;;14.30;99.90;;;;;;5084586;28;20194;-69
2023/07/06 05:02:02;;;;;;;8.03;3.90;;;14.40;99.90;;;;;;5085376;28;20827;-69
2023/07/06 05:04:30;;;;;;;5.07;3.17;;;14.50;99.90;;;;;;5084282;28;20648;-69
2023/07/06 05:06:55;;;;;;;3.43;3.10;;;14.50;99.90;;;;;;5078928;28;20522;-69
2023/07/06 05:09:21;;;;;;;4.07;3.03;;;14.60;99.90;;;;;;5088497;28;20505;-69
2023/07/06 05:11:47;;;;;;;6.50;3.50;;;14.70;99.90;;;;;;5089318;28;20265;-69
2023/07/06 05:14:13;;;;;;;5.00;3.27;;;14.80;99.90;;;;;;5088223;28;20267;-69
2023/07/06 05:16:39;;;;;;;3.90;3.20;;;14.90;99.90;;;;;;5088111;28;20257;-70
2023/07/06 05:19:05;;;;;;;5.27;3.90;;;15.00;99.90;;;;;;5088640;28;20456;-70
2023/07/06 05:21:33;;;;;;;5.97;3.13;;;15.10;99.90;;;;;;5088863;28;20196;-70
2023/07/06 05:23:58;;;;;;;7.77;3.07;;;15.20;99.90;;;;;;5087526;28;20442;-70
2023/07/06 05:26:24;;;;;;;7.27;3.53;;;15.20;99.90;;;;;;5093528;28;20452;-70
2023/07/06 05:28:52;;;;;;;3.13;2.73;;;15.30;99.90;;;;;;5109316;28;20289;-70
2023/07/06 05:31:18;;;;;;;10.47;3.57;;;15.40;99.90;;;;;;5109122;28;20587;-70
2023/07/06 05:33:44;;;;;;;6.60;3.90;;;15.40;99.90;;;;;;5108207;28;20417;-70
2023/07/06 05:36:09;;;;;;;4.83;2.97;;;15.50;99.90;;;;;;5109094;28;20233;-70
2023/07/06 05:38:35;;;;;;;3.13;2.43;;;15.60;99.90;;;;;;5098034;28;20195;-70
2023/07/06 05:41:02;;;;;;;4.67;2.80;;;15.80;99.90;;;;;;5088702;28;20204;-70
2023/07/06 05:43:28;;;;;;;5.47;3.40;;;15.90;99.90;;;;;;5087783;28;20173;-70
2023/07/06 05:45:54;;;;;;;4.67;3.03;;;16.00;99.90;;;;;;5086076;28;20496;-70
2023/07/06 05:48:20;;;;;;;4.17;2.70;;;16.10;99.90;;;;;;5081255;28;20526;-70
2023/07/06 05:50:45;;;;;;;11.13;3.43;;;16.10;99.90;;;;;;5087316;28;20497;-70
2023/07/06 05:53:12;;;;;;;6.40;3.30;;;16.10;99.90;;;;;;5087620;28;20195;-70
2023/07/06 05:55:40;;;;;;;5.03;2.90;;;16.20;99.90;;;;;;5087487;28;20406;-70
2023/07/06 05:58:06;;;;;;;5.40;2.80;;;16.30;99.90;;;;;;5090179;28;20454;-70
2023/07/06 06:00:36;;;;;;;5.83;3.20;;;16.40;99.90;;;;;;5092506;28;20453;-70
2023/07/06 06:03:02;;;;;;;5.70;3.00;;;16.60;99.90;;;;;;5091769;28;20536;-70
2023/07/06 06:05:29;;;;;;;7.07;3.07;;;16.70;99.90;;;;;;5088497;28;20426;-70
2023/07/06 06:07:55;;;;;;;6.70;2.63;;;16.90;99.90;;;;;;5087635;28;20430;-70
2023/07/06 06:10:22;;;;;;;5.63;2.93;;;17.00;99.90;;;;;;5092263;28;20820;-70
2023/07/06 06:12:48;;;;;;;5.00;3.20;;;17.10;99.90;;;;;;5091424;28;20603;-70
2023/07/06 06:15:15;;;;;;;8.87;3.23;;;17.20;99.90;;;;;;5089593;28;20442;-70
2023/07/06 06:17:41;;;;;;;5.47;3.03;;;17.40;99.90;;;;;;5092404;28;20950;-70
2023/07/06 06:20:09;;;;;;;9.20;3.37;;;17.40;99.90;;;;;;5091813;28;20411;-70
2023/07/06 06:22:35;;;;;;;6.90;3.33;;;17.60;99.90;;;;;;5084783;28;20955;-70
2023/07/06 06:25:02;;;;;;;7.07;2.80;;;17.70;99.90;;;;;;5084857;28;20414;-70
2023/07/06 06:27:29;;;;;;;5.60;3.07;;;17.80;99.90;;;;;;5085270;28;20422;-70
2023/07/06 06:29:55;;;;;;;3.53;2.57;;;17.90;99.90;;;;;;5080253;28;21683;-70
2023/07/06 06:32:22;;;;;;;8.27;2.90;;;18.00;99.90;;;;;;5079666;28;20456;-70
2023/07/06 06:34:48;;;;;;;5.13;2.90;;;18.10;99.90;;;;;;5081171;28;20410;-70
2023/07/06 06:37:16;;;;;;;8.70;3.93;;;18.20;99.90;;;;;;5071605;28;20477;-70
2023/07/06 06:39:42;;;;;;;4.57;2.70;;;18.30;99.90;;;;;;5079017;28;20410;-70
2023/07/06 06:42:09;;;;;;;5.53;2.97;;;18.30;99.90;;;;;;5076140;28;20435;-70
2023/07/06 06:44:35;;;;;;;6.37;3.23;;;18.40;99.90;;;;;;5076507;28;20422;-70
2023/07/06 06:47:04;;;;;;;5.23;2.70;;;18.40;99.90;;;;;;5071369;28;20826;-70
2023/07/06 06:49:30;;;;;;;5.40;2.93;;;18.50;99.90;;;;;;5077981;28;20428;-70
2023/07/06 06:51:56;;;;;;;6.60;3.47;;;18.40;99.90;;;;;;5080317;28;20437;-70
2023/07/06 06:54:21;;;;;;;4.10;2.70;;;18.50;99.90;;;;;;5080109;28;20792;-70
2023/07/06 06:56:49;;;;;;;6.23;2.80;;;18.50;99.90;;;;;;5084988;28;20266;-70
2023/07/06 06:59:15;;;;;;;8.20;3.97;;;18.50;99.90;;;;;;5085278;28;20180;-70
2023/07/06 07:01:41;;;;;;;5.30;2.60;;;18.50;99.90;;;;;;5078278;28;20443;-70
2023/07/06 07:04:09;;;;;;;6.20;2.60;;;18.40;99.90;;;;;;5083649;28;20793;-70
2023/07/06 07:06:38;;;;;;;5.77;3.40;;;18.50;99.90;;;;;;5071252;28;20234;-70
2023/07/06 07:09:09;;;;;;;8.17;2.83;;;18.60;99.90;;;;;;5069993;28;20497;-70
2023/07/06 07:11:35;;;;;;;6.13;2.53;;;18.80;99.90;;;;;;5069453;28;20485;-70
2023/07/06 07:14:02;;;;;;;7.47;3.00;;;18.80;99.90;;;;;;5069945;28;20447;-69
2023/07/06 07:16:27;;;;;;;8.70;3.47;;;18.90;99.90;;;;;;5071009;28;20459;-70
2023/07/06 07:18:54;;;;;;;7.03;3.73;;;19.00;99.90;;;;;;5078064;28;20467;-70
2023/07/06 07:21:20;;;;;;;7.23;3.17;;;19.00;99.90;;;;;;5077794;28;20227;-70
2023/07/06 07:23:47;;;;;;;6.83;2.83;;;19.10;99.90;;;;;;5079299;28;20474;-69
2023/07/06 07:26:17;;;;;;;8.83;2.70;;;19.10;99.90;;;;;;5084088;28;20181;-69
2023/07/06 07:28:44;;;;;;;7.73;2.83;;;19.20;99.90;;;;;;5089183;28;20497;-69
2023/07/06 07:31:11;;;;;;;4.60;2.70;;;19.20;99.90;;;;;;5090859;28;20458;-69
2023/07/06 07:33:38;;;;;;;5.90;2.73;;;19.20;99.90;;;;;;5089879;28;20480;-69
2023/07/06 07:36:05;;;;;;;7.53;2.60;;;19.20;99.90;;;;;;5089737;28;20825;-69
2023/07/06 07:38:31;;;;;;;7.30;3.20;;;19.20;99.90;;;;;;5089783;28;20452;-69
2023/07/06 07:40:59;;;;;;;4.90;2.60;;;19.20;99.90;;;;;;5078516;28;20536;-69
2023/07/06 07:43:27;;;;;;;5.37;3.53;;;19.30;99.90;;;;;;5077901;28;20408;-69
2023/07/06 07:46:01;;;;;;;9.17;2.90;;;19.30;99.90;;;;;;5081343;28;20416;-69
2023/07/06 07:48:27;;;;;;;7.07;2.80;;;19.30;99.90;;;;;;5082380;28;20440;-69
2023/07/06 07:50:58;;;;;;;7.87;2.93;;;19.30;99.90;;;;;;5090399;28;20990;-69
2023/07/06 07:53:26;;;;;;;6.60;2.83;;;19.30;99.90;;;;;;5089363;28;20419;-69
2023/07/06 07:55:54;;;;;;;5.23;3.03;;;19.30;99.90;;;;;;5090265;28;20456;-69
2023/07/06 07:58:22;;;;;;;3.87;2.60;;;19.30;99.90;;;;;;5089986;28;20869;-69
2023/07/06 08:00:50;;;;;;;5.87;2.53;;;19.30;99.90;;;;;;5090099;28;20476;-68
2023/07/06 08:03:16;;;;;;;7.10;2.67;;;19.30;99.90;;;;;;5089094;28;20433;-67
2023/07/06 08:05:42;;;;;;;9.57;3.07;;;19.30;99.90;;;;;;5089993;28;20414;-68
2023/07/06 08:08:10;;;;;;;4.90;2.07;;;19.30;99.90;;;;;;5090238;28;20772;-68
2023/07/06 08:10:38;;;;;;;5.23;2.27;;;19.40;99.90;;;;;;5090129;28;20473;-68
2023/07/06 08:13:06;;;;;;;3.60;2.10;;;19.40;99.90;;;;;;5089238;28;20454;-68
2023/07/06 08:15:32;;;;;;;5.40;2.70;;;19.50;99.90;;;;;;5090025;28;20417;-68
2023/07/06 08:18:00;;;;;;;6.50;3.03;;;19.40;99.90;;;;;;5089982;28;20519;-68
2023/07/06 08:20:29;;;;;;;12.30;2.67;;;19.40;99.90;;;;;;5089604;28;20477;-68
2023/07/06 08:22:59;;;;;;;8.30;2.90;;;19.40;99.90;;;;;;5089245;28;20986;-68
2023/07/06 08:25:27;;;;;;;7.17;3.00;;;19.40;99.90;;;;;;5089741;28;20464;-68
2023/07/06 08:27:54;;;;;;;9.43;2.50;;;19.20;99.90;;;;;;5089719;28;20495;-68
2023/07/06 08:30:21;;;;;;;7.17;2.93;;;19.30;99.90;;;;;;5089618;28;20488;-68
2023/07/06 08:32:48;;;;;;;3.60;2.40;;;19.20;99.90;;;;;;5089171;28;20455;-68
2023/07/06 08:35:16;;;;;;;3.40;2.00;;;19.20;99.90;;;;;;5089508;28;20506;-68
2023/07/06 08:37:41;;;;;;;5.70;2.30;;;19.20;99.90;;;;;;5088637;28;20481;-68
2023/07/06 08:40:17;;;;;;;7.63;2.40;;;19.20;99.90;;;;;;5089385;28;21064;-68
2023/07/06 08:42:47;;;;;;;2.90;2.30;;;19.20;99.90;;;;;;5089025;28;20233;-68
2023/07/06 08:45:20;;;;;;;5.83;2.30;;;19.30;99.90;;;;;;5088005;28;20887;-68
2023/07/06 08:47:47;;;;;;;3.07;2.50;;;19.50;99.90;;;;;;5088371;28;20411;-69
2023/07/06 08:50:15;;;;;;;5.37;2.70;;;19.50;99.90;;;;;;5089197;28;20435;-69
2023/07/06 08:52:42;;;;;;;5.67;2.20;;;19.60;99.90;;;;;;5088842;28;20428;-69
2023/07/06 08:55:14;;;;;;;3.83;2.03;;;19.60;99.90;;;;;;5089136;28;20407;-69
2023/07/06 08:57:40;;;;;;;3.80;2.07;;;19.60;99.90;;;;;;5089025;28;20817;-69
2023/07/06 09:00:21;;;;;;;3.17;1.70;;;19.70;99.90;;;;;;5089204;28;20418;-69
2023/07/06 09:02:49;;;;;;;5.27;2.43;;;19.70;99.90;;;;;;5088578;28;20549;-69
2023/07/06 09:05:15;;;;;;;5.63;2.27;;;19.70;99.90;;;;;;5088835;28;20427;-69
2023/07/06 09:07:44;;;;;;;2.80;1.90;;;19.80;99.90;;;;;;5089287;28;20911;-69
2023/07/06 09:10:17;;;;;;;4.53;2.03;;;19.90;99.90;;;;;;5088975;28;20435;-69
2023/07/06 09:12:43;;;;;;;3.13;1.90;;;20.00;99.90;;;;;;5088505;28;20406;-69
2023/07/06 09:15:13;;;;;;;6.17;1.93;;;20.10;99.90;;;;;;5088942;28;21033;-68
2023/07/06 09:17:47;;;;;;;3.63;2.07;;;20.20;99.90;;;;;;5088930;28;20851;-68
2023/07/06 09:20:15;;;;;;;3.83;1.70;;;20.30;99.90;;;;;;5088830;28;20426;-69
2023/07/06 09:22:42;;;;;;;3.70;1.67;;;20.40;99.90;;;;;;5088334;28;20418;-68
2023/07/06 09:25:18;;;;;;;6.83;3.00;;;20.40;99.90;;;;;;5087545;28;20501;-69
2023/07/06 09:27:49;;;;;;;4.77;1.80;;;20.50;99.90;;;;;;5087698;28;20425;-69
2023/07/06 09:30:33;;;;;;;3.40;1.80;;;20.50;99.90;;;;;;5088761;28;20431;-69
2023/07/06 09:33:04;;;;;;;4.33;2.03;;;20.60;99.90;;;;;;5087604;28;20414;-69
2023/07/06 09:35:30;;;;;;;4.30;2.37;;;20.70;99.90;;;;;;5088782;28;20953;-69
2023/07/06 09:37:57;;;;;;;3.00;2.00;;;20.70;99.90;;;;;;5088815;28;20457;-69
2023/07/06 09:40:30;;;;;;;3.17;2.13;;;20.80;99.90;;;;;;5088577;28;20500;-69
2023/07/06 09:42:56;;;;;;;2.77;1.83;;;20.90;99.90;;;;;;5087986;28;20923;-69
2023/07/06 09:45:25;;;;;;;4.10;2.13;;;21.00;99.90;;;;;;5088569;28;20937;-69
2023/07/06 09:47:58;;;;;;;2.43;2.00;;;21.00;99.90;;;;;;5088710;28;21165;-69
2023/07/06 09:50:38;;;;;;;5.77;2.13;;;21.10;99.90;;;;;;5088598;28;21146;-69
2023/07/06 09:53:07;;;;;;;4.40;2.03;;;21.10;99.90;;;;;;5087773;28;20410;-68
2023/07/06 09:55:33;;;;;;;3.50;2.07;;;21.30;99.90;;;;;;5088719;28;20438;-68
2023/07/06 09:58:00;;;;;;;4.80;2.33;;;21.20;99.90;;;;;;5086817;28;20477;-68
2023/07/06 10:00:43;;;;;;;3.80;1.70;;;21.20;99.90;;;;;;5088531;28;20430;-68
2023/07/06 10:03:36;;;;;;;3.80;2.10;;;21.30;99.90;;;;;;5087616;28;20457;-68
2023/07/06 10:06:17;;;;;;;4.10;1.97;;;21.40;99.90;;;;;;5088583;28;20493;-68
2023/07/06 10:09:16;;;;;;;8.40;2.20;;;21.60;99.90;;;;;;5088688;28;20469;-68
2023/07/06 10:11:57;;;;;;;4.10;1.70;;;21.80;99.90;;;;;;5084401;28;21065;-68
2023/07/06 10:14:29;;;;;;;4.57;2.10;;;21.90;99.90;;;;;;5087936;28;20418;-68
2023/07/06 10:17:21;;;;;;;3.70;2.07;;;21.70;99.70;;;;;;5088402;28;21334;-68
2023/07/06 10:19:59;;;;;;;2.30;1.67;;;21.60;99.90;;;;;;5088587;28;20423;-68
2023/07/06 10:22:31;;;;;;;2.47;2.10;;;21.60;99.90;;;;;;5087939;28;20406;-69
2023/07/06 10:25:18;;;;;;;3.23;2.07;;;21.80;99.90;;;;;;5088109;28;20498;-68
2023/07/06 10:27:49;;;;;;;5.17;2.07;;;21.80;99.90;;;;;;5088316;28;20908;-68
2023/07/06 10:30:22;;;;;;;3.80;1.87;;;21.70;99.90;;;;;;5088365;28;20445;-68
2023/07/06 10:32:51;;;;;;;3.77;2.50;;;21.70;99.90;;;;;;5086270;28;20406;-68
2023/07/06 10:35:40;;;;;;;3.97;2.20;;;21.80;99.90;;;;;;5087935;28;20417;-68
2023/07/06 10:38:10;;;;;;;3.10;1.70;;;21.80;99.90;;;;;;5080099;28;20466;-68
2023/07/06 10:40:37;;;;;;;3.37;1.80;;;21.90;99.90;;;;;;5081286;28;20447;-68
2023/07/06 10:43:15;;;;;;;2.80;2.17;;;22.00;99.90;;;;;;5079088;28;20468;-68
2023/07/06 10:45:46;;;;;;;4.10;1.60;;;22.10;99.90;;;;;;5079461;28;20500;-68
2023/07/06 10:48:25;;;;;;;2.40;1.70;;;22.00;99.20;;;;;;5088827;28;20972;-68
2023/07/06 10:51:04;;;;;;;4.97;2.00;;;22.00;99.50;;;;;;5084320;28;20945;-68
2023/07/06 10:53:42;;;;;;;5.40;2.10;;;21.90;99.50;;;;;;5081066;28;20419;-68
2023/07/06 10:56:20;;;;;;;3.10;2.10;;;21.90;99.80;;;;;;5083294;28;20920;-68
2023/07/06 10:59:02;;;;;;;3.53;1.67;;;22.10;99.60;;;;;;5084602;28;20415;-68
2023/07/06 11:01:32;;;;;;;2.57;1.70;;;22.30;99.20;;;;;;5086435;28;20423;-69
2023/07/06 11:04:00;;;;;;;4.03;1.70;;;22.40;97.80;;;;;;5083101;28;20866;-69
2023/07/06 11:06:41;;;;;;;3.40;2.00;;;22.40;98.10;;;;;;5084659;28;20411;-69
2023/07/06 11:09:09;;;;;;;3.90;1.87;;;22.50;97.20;;;;;;5076691;28;20427;-69
2023/07/06 11:11:55;;;;;;;3.83;1.60;;;22.40;96.70;;;;;;5075645;28;20431;-69
2023/07/06 11:14:35;;;;;;;2.50;1.23;;;22.30;97.50;;;;;;5085999;28;20416;-69
2023/07/06 11:17:10;;;;;;;4.67;1.77;;;22.30;97.00;;;;;;5076488;28;20461;-69
2023/07/06 11:19:48;;;;;;;3.50;2.17;;;22.30;97.30;;;;;;5083737;28;20514;-69
2023/07/06 11:22:18;;;;;;;4.17;1.83;;;22.30;98.10;;;;;;5088354;28;20435;-69
2023/07/06 11:24:48;;;;;;;1.87;1.50;;;22.20;97.90;;;;;;5081958;28;20419;-69
2023/07/06 11:27:22;;;;;;;3.27;1.67;;;22.20;98.10;;;;;;5092097;28;20465;-69
2023/07/06 11:29:48;;;;;;;2.67;1.73;;;22.30;98.40;;;;;;5082894;28;20415;-69
2023/07/06 11:32:28;;;;;;;2.23;1.50;;;22.30;96.50;;;;;;5083990;28;20430;-69
2023/07/06 11:34:57;;;;;;;3.67;1.53;;;22.30;96.60;;;;;;5082493;28;20871;-69
2023/07/06 11:37:47;;;;;;;3.30;1.47;;;22.40;97.00;;;;;;5085129;28;20970;-69
2023/07/06 11:40:31;;;;;;;1.80;1.40;;;22.50;96.80;;;;;;5079955;28;20466;-69
2023/07/06 11:43:10;;;;;;;2.40;1.53;;;22.60;96.50;;;;;;5078769;28;20410;-69
2023/07/06 11:45:52;;;;;;;4.27;1.90;;;22.50;96.00;;;;;;5083195;28;20434;-69
2023/07/06 11:48:34;;;;;;;5.13;2.17;;;22.40;96.00;;;;;;5086225;28;21258;-69
2023/07/06 11:51:01;;;;;;;3.10;1.53;;;22.30;96.60;;;;;;5081058;28;20433;-69
2023/07/06 11:53:44;;;;;;;3.10;2.03;;;22.30;96.70;;;;;;5083714;28;20414;-69
2023/07/06 11:56:22;;;;;;;4.43;1.90;;;22.20;96.70;;;;;;5086693;28;20464;-69
2023/07/06 11:59:00;;;;;;;2.50;1.50;;;22.10;96.50;;;;;;5081851;28;20446;-69
2023/07/06 12:01:42;;;;;;;2.60;1.57;;;22.20;97.20;;;;;;5085858;28;20874;-69
2023/07/06 12:04:12;;;;;;;4.97;1.40;;;22.40;96.60;;;;;;5080563;28;20430;-69
2023/07/06 12:06:38;;;;;;;4.03;1.70;;;22.60;97.00;;;;;;5084329;28;20410;-69
2023/07/06 12:09:07;;;;;;;2.33;1.60;;;22.60;96.90;;;;;;5086484;28;20934;-69
2023/07/06 12:11:35;;;;;;;5.53;1.87;;;22.60;95.90;;;;;;5083728;28;20692;-69
2023/07/06 12:14:01;;;;;;;3.17;1.73;;;22.50;94.90;;;;;;5084350;28;20414;-69
2023/07/06 12:16:30;;;;;;;2.00;1.57;;;22.40;95.10;;;;;;5079772;28;20777;-69
2023/07/06 12:19:06;;;;;;;2.10;1.60;;;22.30;94.70;;;;;;5076626;28;20181;-69
2023/07/06 12:21:38;;;;;;;1.80;1.60;;;22.30;95.00;;;;;;5086131;28;20484;-69
2023/07/06 12:24:06;;;;;;;2.33;1.30;;;22.40;96.50;;;;;;5082085;28;20442;-69
2023/07/06 12:26:34;;;;;;;3.30;1.40;;;22.40;95.00;;;;;;5084008;28;20416;-70
2023/07/06 12:29:04;;;;;;;4.00;1.57;;;22.30;95.20;;;;;;5080544;28;20496;-70
2023/07/06 12:31:31;;;;;;;1.63;1.30;;;22.30;95.10;;;;;;5081082;28;20431;-69
2023/07/06 12:33:57;;;;;;;1.40;1.30;;;22.20;95.50;;;;;;5088216;28;20951;-69
2023/07/06 12:36:33;;;;;;;2.67;1.47;;;22.20;95.70;;;;;;5077777;28;20411;-69
2023/07/06 12:39:03;;;;;;;1.93;1.40;;;22.20;95.20;;;;;;5082490;28;20426;-69
2023/07/06 12:41:34;;;;;;;4.67;1.70;;;22.30;95.00;;;;;;5084463;28;20454;-69
2023/07/06 12:44:01;;;;;;;4.43;1.57;;;22.50;95.00;;;;;;5079203;28;20419;-69
2023/07/06 12:46:32;;;;;;;2.40;1.43;;;22.70;95.00;;;;;;5082761;28;20513;-69
2023/07/06 12:49:02;;;;;;;1.60;1.50;;;22.80;94.50;;;;;;5082102;28;20515;-69
2023/07/06 12:51:28;;;;;;;5.17;1.40;;;22.90;93.70;;;;;;5083661;28;20430;-70
2023/07/06 12:53:57;;;;;;;2.33;1.10;;;22.90;93.40;;;;;;5078690;28;20470;-69
2023/07/06 12:56:25;;;;;;;3.27;1.57;;;23.00;93.80;;;;;;5083560;28;20419;-69
2023/07/06 12:58:58;;;;;;;4.70;1.40;;;22.90;94.10;;;;;;5083404;28;20423;-69